Time;durP1;ratioP1;P1;durP2;ratioP2;P2;SDS_P1;SDS_P2;PMS_P1;PMS_P2;Temp;Humidity;BMP_temperature;BMP_pressure;BME280_temperature;BME280_humidity;BME280_pressure;Samples;Min_cycle;Max_cycle;Signal;HPM_P1;HPM_P2
2022/06/05 00:01:53;;;;;;;5.40;4.45;;;22.30;62.00;;;19.12;74.13;95392.38;5034742;28;20064;-49
2022/06/05 00:04:31;;;;;;;6.50;4.70;;;22.30;61.90;;;19.09;74.49;95379.53;5015368;28;20080;-50
2022/06/05 00:07:59;;;;;;;4.80;4.30;;;22.30;61.90;;;19.07;74.47;95368.25;5018295;28;20100;-53
2022/06/05 00:11:11;;;;;;;6.93;4.55;;;22.30;62.00;;;19.08;74.73;95369.03;5028075;28;20042;-51
2022/06/05 00:13:55;;;;;;;6.20;4.68;;;22.30;62.00;;;19.12;74.52;95372.69;5033093;28;20041;-52
2022/06/05 00:16:32;;;;;;;8.20;4.25;;;22.30;61.80;;;19.08;74.70;95386.00;5034706;28;20120;-54
2022/06/05 00:19:24;;;;;;;6.28;4.50;;;22.30;61.80;;;19.07;74.56;95387.13;5009331;28;20056;-54
2022/06/05 00:21:50;;;;;;;6.38;4.57;;;22.20;61.60;;;18.95;75.15;95382.41;5014484;28;20026;-54
2022/06/05 00:24:38;;;;;;;6.35;5.13;;;22.20;61.50;;;18.84;75.65;95369.59;5013749;28;20100;-51
2022/06/05 00:27:48;;;;;;;5.82;4.70;;;22.10;61.70;;;18.77;76.08;95364.72;5026688;28;20033;-52
2022/06/05 00:30:38;;;;;;;5.30;4.80;;;22.10;62.20;;;18.77;76.31;95370.09;5042653;28;20029;-53
2022/06/05 00:33:29;;;;;;;7.30;5.03;;;22.10;62.30;;;18.76;76.32;95362.31;5016580;28;20053;-49
2022/06/05 00:36:46;;;;;;;6.80;4.65;;;22.00;62.40;;;18.78;76.33;95368.97;5028849;28;20395;-51
2022/06/05 00:40:18;;;;;;;7.38;4.57;;;22.00;62.40;;;18.67;76.82;95363.09;5001651;28;20029;-54
2022/06/05 00:43:22;;;;;;;7.75;5.22;;;22.00;62.60;;;18.61;77.15;95358.97;5024324;28;20120;-50
2022/06/05 00:46:17;;;;;;;6.63;5.03;;;21.90;62.60;;;18.55;77.09;95356.78;5034074;28;20037;-50
2022/06/05 00:48:53;;;;;;;5.75;5.00;;;21.80;62.50;;;18.48;77.62;95370.75;5030238;28;20520;-50
2022/06/05 00:51:28;;;;;;;8.00;4.88;;;21.80;62.70;;;18.39;77.77;95361.88;5014162;28;20127;-53
2022/06/05 00:53:54;;;;;;;6.70;5.15;;;21.70;62.80;;;18.22;78.68;95344.63;5014442;28;20492;-50
2022/06/05 00:56:26;;;;;;;7.25;4.95;;;21.70;63.20;;;18.16;79.17;95339.72;5013281;28;20041;-49
2022/06/05 00:58:52;;;;;;;6.60;5.05;;;21.60;63.60;;;18.20;78.74;95335.25;5013268;28;20038;-49
2022/06/05 01:01:24;;;;;;;9.45;5.65;;;21.60;64.10;;;18.25;78.73;95327.00;4996098;28;20040;-49
2022/06/05 01:04:00;;;;;;;6.20;4.93;;;21.60;64.20;;;18.25;78.80;95322.41;5013052;28;20080;-52
2022/06/05 01:06:33;;;;;;;8.65;5.60;;;21.60;64.50;;;18.23;78.81;95316.53;5012724;28;20052;-54
2022/06/05 01:09:00;;;;;;;8.90;5.13;;;21.60;64.90;;;18.24;78.79;95310.06;5013900;28;20038;-53
2022/06/05 01:12:18;;;;;;;9.45;6.00;;;21.50;64.90;;;18.26;78.88;95302.41;5015737;28;20504;-53
2022/06/05 01:15:36;;;;;;;7.07;5.55;;;21.50;65.30;;;18.32;78.86;95308.44;5019616;28;20108;-53
2022/06/05 01:18:46;;;;;;;6.93;5.18;;;21.60;65.40;;;18.37;78.63;95299.41;5028589;28;20025;-54
2022/06/05 01:21:56;;;;;;;11.13;5.55;;;21.60;65.40;;;18.38;78.70;95296.38;5032395;28;20021;-52
2022/06/05 01:24:56;;;;;;;9.07;5.68;;;21.50;65.50;;;18.39;78.33;95289.88;5033603;28;20482;-50
2022/06/05 01:27:37;;;;;;;6.50;5.85;;;21.50;65.50;;;18.37;78.44;95270.53;5033349;28;20322;-55
2022/06/05 01:30:21;;;;;;;6.15;5.55;;;21.50;65.50;;;18.37;78.68;95269.75;5032031;28;20507;-49
2022/06/05 01:33:24;;;;;;;10.85;5.40;;;21.60;65.80;;;18.35;78.84;95261.19;5032287;28;20029;-50
2022/06/05 01:36:11;;;;;;;7.17;5.77;;;21.60;65.80;;;18.33;78.80;95253.41;5033310;28;20098;-52
2022/06/05 01:38:48;;;;;;;15.52;5.82;;;21.60;65.70;;;18.34;78.90;95246.91;5033427;28;20386;-52
2022/06/05 01:41:46;;;;;;;9.45;5.72;;;21.50;65.60;;;18.30;78.97;95245.97;5014429;28;20025;-54
2022/06/05 01:44:41;;;;;;;9.68;5.72;;;21.50;65.70;;;18.25;79.02;95235.34;5012433;28;20030;-52
2022/06/05 01:47:20;;;;;;;6.43;5.60;;;21.50;65.80;;;18.23;79.36;95232.97;4996082;28;20032;-50
2022/06/05 01:49:58;;;;;;;6.20;5.60;;;21.50;66.00;;;18.18;79.29;95222.38;5011988;28;20033;-53
2022/06/05 01:52:38;;;;;;;9.27;5.38;;;21.50;66.20;;;18.13;79.54;95211.75;5026839;28;20065;-52
2022/06/05 01:55:43;;;;;;;8.10;5.88;;;21.40;66.10;;;18.08;79.79;95219.22;5012174;28;20037;-51
2022/06/05 01:58:17;;;;;;;7.22;6.20;;;21.40;66.40;;;18.05;79.99;95217.97;5009662;28;20690;-49
2022/06/05 02:01:00;;;;;;;8.65;5.95;;;21.30;66.40;;;18.02;80.00;95213.22;5009510;28;20433;-49
2022/06/05 02:03:49;;;;;;;8.85;5.60;;;21.30;66.70;;;17.99;80.24;95213.88;5011116;28;20421;-50
2022/06/05 02:06:48;;;;;;;7.20;5.70;;;21.30;66.80;;;17.98;80.22;95194.19;5030906;28;20403;-53
2022/06/05 02:10:09;;;;;;;8.98;5.70;;;21.30;66.90;;;17.97;80.23;95189.94;5004826;28;20128;-54
2022/06/05 02:15:22;;;;;;;7.03;6.20;;;21.20;66.70;;;17.90;80.44;95178.06;5012314;28;20034;-51
2022/06/05 02:17:59;;;;;;;8.30;6.18;;;21.20;66.80;;;17.89;80.61;95168.38;4995392;28;20026;-52
2022/06/05 15:28:02;;;;;;;10.15;2.50;;;19.90;67.90;;;18.19;79.90;95622.13;5093082;27;20422;-47
2022/06/05 15:30:42;;;;;;;6.55;2.75;;;19.50;70.40;;;18.15;80.14;95650.81;5074400;28;20033;-48
2022/06/05 15:33:30;;;;;;;6.78;2.55;;;19.90;69.90;;;18.09;81.54;95650.16;5072064;28;20425;-47
2022/06/05 15:36:23;;;;;;;4.97;2.47;;;20.30;69.80;;;18.09;81.76;95660.94;5065768;28;20040;-48
2022/06/05 15:39:23;;;;;;;8.98;2.67;;;20.60;69.00;;;18.14;82.66;95665.38;5069367;28;20092;-46
2022/06/05 15:42:21;;;;;;;5.30;2.63;;;20.80;68.40;;;18.03;82.65;95676.44;5068856;28;20032;-49
2022/06/05 15:45:28;;;;;;;9.68;3.22;;;21.00;68.00;;;18.01;83.57;95688.63;5067879;28;20111;-45
2022/06/05 15:48:23;;;;;;;7.50;3.13;;;21.10;67.80;;;17.90;82.82;95669.22;5070794;28;20049;-51
2022/06/05 15:51:25;;;;;;;5.13;2.83;;;21.20;67.50;;;17.75;84.70;95648.81;5063791;28;20047;-55
2022/06/05 15:54:38;;;;;;;7.53;2.90;;;21.20;67.50;;;17.68;82.52;95661.94;5059384;28;20546;-45
2022/06/05 16:00:23;;;;;;;5.03;2.83;;;21.20;67.00;;;17.62;85.11;95654.31;5052539;28;20170;-46
2022/06/05 16:02:53;;;;;;;12.32;3.50;;;21.30;67.10;;;17.63;85.00;95655.88;5049689;28;20033;-45
2022/06/05 16:05:35;;;;;;;9.02;3.50;;;21.30;67.20;;;17.66;84.39;95650.66;5065814;28;20033;-48
2022/06/05 16:08:12;;;;;;;7.82;2.53;;;21.30;67.50;;;17.61;83.45;95631.94;5049742;28;20021;-47
2022/06/05 16:11:14;;;;;;;5.80;3.13;;;21.40;67.30;;;17.59;83.94;95623.38;5073446;28;20021;-47
2022/06/05 16:14:27;;;;;;;7.20;2.60;;;21.50;67.40;;;17.63;83.41;95631.63;5083138;28;20103;-47
2022/06/05 16:17:26;;;;;;;6.60;2.97;;;21.50;67.00;;;17.66;83.72;95629.13;5017906;28;20037;-52
2022/06/05 16:20:04;;;;;;;7.35;3.38;;;21.60;67.00;;;17.68;84.31;95635.00;5066153;28;20037;-53
2022/06/05 16:22:42;;;;;;;7.90;3.15;;;21.60;66.90;;;17.60;83.36;95638.44;5068471;28;20491;-49
2022/06/05 16:25:44;;;;;;;8.75;3.00;;;21.60;67.10;;;17.65;83.41;95626.75;5082847;28;20483;-51
2022/06/05 16:28:43;;;;;;;4.38;2.40;;;21.60;67.50;;;17.61;81.20;95620.38;5063902;28;20487;-52
2022/06/05 16:31:51;;;;;;;5.82;2.53;;;21.90;66.40;;;17.61;80.59;95614.97;5059397;28;20289;-52
2022/06/05 16:37:53;;;;;;;6.25;2.10;;;22.10;65.70;;;17.62;80.47;95635.44;5063369;28;20116;-50
2022/06/05 16:40:32;;;;;;;4.78;2.20;;;22.00;65.00;;;17.42;79.75;95624.06;5051803;28;20027;-49
2022/06/05 16:43:19;;;;;;;3.20;1.85;;;21.80;65.10;;;17.42;79.27;95624.06;5046237;28;20044;-49
2022/06/05 16:46:00;;;;;;;4.53;2.03;;;21.70;65.10;;;17.37;79.23;95629.56;5049293;28;20487;-50
2022/06/05 16:48:30;;;;;;;7.60;2.05;;;21.50;65.10;;;17.32;79.98;95643.16;5060633;28;20395;-50
2022/06/05 16:51:05;;;;;;;10.82;2.55;;;21.30;65.40;;;17.30;79.96;95673.09;5041404;28;20108;-48
2022/06/05 16:53:36;;;;;;;9.18;3.17;;;21.20;65.80;;;17.32;82.72;95703.16;5043475;28;20025;-50
2022/06/05 16:56:20;;;;;;;6.95;2.50;;;21.10;66.40;;;17.30;82.28;95694.63;5030235;28;20119;-51
2022/06/05 16:58:55;;;;;;;9.27;2.78;;;20.90;66.90;;;17.23;82.72;95702.31;5056436;28;20028;-48
2022/06/05 17:01:27;;;;;;;10.98;3.25;;;20.70;67.50;;;17.05;84.51;95733.66;5048802;28;20039;-49
2022/06/05 17:04:11;;;;;;;7.07;2.60;;;20.60;67.80;;;16.97;84.80;95725.50;5045939;28;20036;-48
2022/06/05 17:06:50;;;;;;;10.90;3.22;;;20.40;68.40;;;16.73;85.73;95737.22;5051437;28;20036;-49
2022/06/05 17:09:18;;;;;;;8.57;3.83;;;20.30;68.90;;;16.59;85.95;95733.75;5049433;28;20029;-51
2022/06/05 17:12:07;;;;;;;11.20;3.80;;;20.20;69.30;;;16.49;87.01;95715.16;5065533;28;20025;-48
2022/06/05 17:14:56;;;;;;;8.25;3.40;;;20.00;69.50;;;16.51;86.35;95729.06;5046163;28;20395;-49
2022/06/05 17:17:32;;;;;;;13.20;4.47;;;19.90;69.90;;;16.46;86.69;95724.59;5046864;28;20120;-48
2022/06/05 17:20:22;;;;;;;6.95;3.83;;;19.80;69.90;;;16.40;86.71;95729.28;5048177;28;20143;-53
2022/06/05 17:22:55;;;;;;;7.78;3.60;;;19.80;70.30;;;16.36;86.84;95739.03;5048060;28;20483;-51
2022/06/05 17:25:49;;;;;;;7.68;3.95;;;19.80;70.40;;;16.32;87.61;95738.00;5049595;28;20037;-51
2022/06/05 17:28:52;;;;;;;5.57;3.45;;;19.70;70.90;;;16.29;87.98;95727.06;5049859;28;20218;-50
2022/06/05 17:31:48;;;;;;;11.15;3.95;;;19.70;71.20;;;16.25;88.02;95705.34;5046289;28;20103;-48
2022/06/05 17:34:37;;;;;;;9.82;3.47;;;19.60;71.10;;;16.22;88.39;95716.69;5050015;28;20037;-48
2022/06/05 17:37:49;;;;;;;11.63;4.15;;;19.60;71.30;;;16.21;88.27;95714.31;5033930;28;20087;-49
2022/06/05 17:40:57;;;;;;;7.10;4.10;;;19.60;71.60;;;16.18;88.22;95718.41;5047994;28;20032;-52
2022/06/05 17:43:59;;;;;;;12.55;4.13;;;19.60;71.60;;;16.18;89.01;95719.19;5034021;28;20045;-51
2022/06/05 17:46:37;;;;;;;6.33;3.43;;;19.60;71.60;;;16.19;88.90;95709.22;5045728;28;20630;-51
2022/06/05 17:49:41;;;;;;;11.43;3.83;;;19.60;71.40;;;16.22;88.91;95711.31;5059230;28;20029;-52
2022/06/05 17:52:17;;;;;;;8.63;4.57;;;19.70;71.70;;;16.26;89.71;95706.94;5047926;28;20111;-50
2022/06/05 17:55:14;;;;;;;8.90;4.20;;;19.90;71.50;;;16.36;90.20;95700.59;5056519;28;20036;-51
2022/06/05 17:57:40;;;;;;;8.23;3.60;;;20.10;71.80;;;16.50;90.43;95689.84;5039795;28;20041;-50
2022/06/05 18:00:20;;;;;;;7.63;3.65;;;20.30;71.30;;;16.63;90.30;95694.41;5046284;28;20021;-52
2022/06/05 18:02:58;;;;;;;8.52;3.58;;;20.60;71.50;;;16.72;89.42;95689.91;5039828;28;20120;-48
2022/06/05 18:05:36;;;;;;;5.50;3.58;;;20.90;71.20;;;16.88;89.42;95691.22;5041357;28;20033;-50
2022/06/05 18:08:12;;;;;;;5.70;3.38;;;21.10;71.00;;;17.08;89.01;95703.47;5053466;28;20036;-52
2022/06/05 18:11:14;;;;;;;6.45;3.33;;;21.20;70.90;;;17.23;89.05;95713.06;5047930;28;20056;-50
2022/06/05 18:13:54;;;;;;;6.20;3.17;;;21.30;70.90;;;17.29;89.21;95717.22;5041216;28;20487;-53
2022/06/05 18:16:42;;;;;;;8.68;3.42;;;21.30;71.00;;;17.33;88.24;95704.78;5037681;28;20069;-51
2022/06/05 18:19:22;;;;;;;7.47;3.05;;;21.30;70.90;;;17.32;87.00;95713.16;5033068;28;20026;-48
2022/06/05 18:21:54;;;;;;;5.25;3.10;;;21.20;70.60;;;17.21;85.92;95722.56;5048381;28;20037;-49
2022/06/05 18:24:36;;;;;;;5.38;3.10;;;21.10;71.20;;;17.13;86.35;95728.66;5031753;28;20037;-51
2022/06/05 18:27:30;;;;;;;7.10;3.00;;;21.00;70.40;;;17.07;86.11;95733.34;5032760;28;20046;-52
2022/06/05 18:30:38;;;;;;;9.02;3.58;;;20.90;70.40;;;16.97;86.31;95742.44;5032930;28;20484;-52
2022/06/05 18:33:28;;;;;;;7.05;4.30;;;20.70;70.50;;;16.86;86.27;95752.63;5032880;28;20041;-52
2022/06/05 18:39:36;;;;;;;4.95;3.33;;;20.50;70.70;;;16.58;86.70;95740.25;5055398;28;20063;-49
2022/06/05 18:42:06;;;;;;;5.20;3.60;;;20.30;70.70;;;16.48;86.50;95737.72;5045266;28;20056;-49
2022/06/05 18:44:36;;;;;;;4.82;3.92;;;20.20;70.70;;;16.42;86.76;95755.84;5041108;28;20029;-51
2022/06/05 18:47:16;;;;;;;7.15;3.92;;;20.10;71.00;;;16.32;86.96;95747.97;5056770;28;20051;-46
2022/06/05 18:49:44;;;;;;;5.95;3.65;;;20.00;71.10;;;16.22;87.22;95748.94;5054993;28;20059;-47
2022/06/05 18:52:26;;;;;;;5.53;4.13;;;19.90;71.10;;;16.15;87.39;95752.03;5040815;28;20041;-48
2022/06/05 18:55:00;;;;;;;7.95;5.93;;;19.80;71.50;;;16.04;87.79;95741.75;5025079;28;20079;-50
2022/06/05 18:57:35;;;;;;;8.00;3.83;;;19.70;71.60;;;15.99;87.94;95760.66;5032527;28;20057;-46
2022/06/05 19:00:29;;;;;;;6.53;3.38;;;19.60;71.90;;;15.95;87.97;95763.94;5049469;28;20076;-50
2022/06/05 19:03:01;;;;;;;5.10;3.88;;;19.60;72.20;;;15.90;88.32;95763.22;5069431;28;20103;-46
2022/06/05 19:05:30;;;;;;;5.28;3.65;;;19.50;72.20;;;15.85;88.33;95777.50;5051317;28;20029;-47
2022/06/05 19:07:56;;;;;;;10.57;4.50;;;19.40;72.20;;;15.83;88.36;95779.69;5052378;28;20037;-46
2022/06/05 19:10:51;;;;;;;8.98;4.03;;;19.40;72.50;;;15.81;88.52;95778.41;5038022;28;20024;-45
2022/06/05 19:13:53;;;;;;;6.03;3.28;;;19.30;72.80;;;15.73;88.51;95785.22;5032786;28;20037;-48
2022/06/05 19:17:06;;;;;;;4.72;2.92;;;19.30;72.90;;;15.66;88.55;95787.44;5046391;28;20063;-55
2022/06/05 19:19:39;;;;;;;4.63;3.30;;;19.20;72.90;;;15.62;88.10;95784.56;5044152;28;20033;-48
2022/06/05 19:22:33;;;;;;;8.32;3.50;;;19.20;72.70;;;15.64;87.36;95786.97;5051977;28;20440;-46
2022/06/05 19:25:19;;;;;;;7.07;3.05;;;19.10;72.90;;;15.61;87.24;95803.66;5054896;28;20024;-51
2022/06/05 19:28:14;;;;;;;4.88;3.20;;;19.10;72.90;;;15.58;87.20;95802.34;5066570;28;20122;-51
2022/06/05 19:30:58;;;;;;;6.53;3.30;;;19.00;72.90;;;15.45;87.52;95795.81;5043726;28;20040;-51
2022/06/05 19:33:37;;;;;;;6.55;3.15;;;18.90;72.90;;;15.36;88.29;95788.69;5050560;28;20491;-51
2022/06/05 19:39:05;;;;;;;3.97;3.50;;;18.80;73.00;;;15.23;89.30;95803.59;5052086;28;20071;-48
2022/06/05 19:41:35;;;;;;;4.53;3.53;;;18.80;73.40;;;15.19;89.62;95811.44;5040780;28;20033;-49
2022/06/05 19:44:18;;;;;;;4.40;3.28;;;18.70;73.40;;;15.18;89.06;95809.06;5066779;28;20028;-52
2022/06/05 19:46:45;;;;;;;4.97;3.97;;;18.60;73.70;;;15.10;89.71;95815.03;5051634;28;20151;-51
2022/06/05 19:49:28;;;;;;;11.13;4.07;;;18.60;73.60;;;15.06;89.34;95812.13;5067373;28;20037;-48
2022/06/05 19:52:02;;;;;;;;;;;18.50;73.80;;;14.96;89.62;95812.28;5067090;28;20017;-48
2022/06/05 19:54:38;;;;;;;;;;;18.40;73.20;;;14.91;89.61;95823.03;5051000;28;19909;-49
2022/06/05 19:57:21;;;;;;;4.57;3.13;;;18.30;72.80;;;14.80;89.95;95838.47;5051591;28;20000;-46
2022/06/05 20:00:10;;;;;;;7.57;3.38;;;18.30;73.10;;;14.78;89.85;95833.38;5050519;28;20033;-48
2022/06/05 20:02:39;;;;;;;3.30;2.40;;;18.30;73.50;;;14.69;89.82;95842.31;5066717;28;20063;-48
2022/06/05 20:05:38;;;;;;;6.43;2.60;;;18.30;73.70;;;14.69;89.57;95843.13;5067030;28;20072;-49
2022/06/05 20:08:25;;;;;;;2.78;2.00;;;18.20;74.00;;;14.64;89.13;95845.06;5050529;28;20480;-50
2022/06/05 20:11:07;;;;;;;2.72;2.20;;;18.20;74.20;;;14.60;89.29;95839.47;5067046;28;20040;-47
2022/06/05 20:13:53;;;;;;;3.33;2.30;;;18.10;74.10;;;14.63;89.17;95854.97;5069365;28;20025;-49
2022/06/05 20:19:27;;;;;;;3.55;2.42;;;18.10;74.10;;;14.51;89.13;95851.91;5059380;28;20116;-50
2022/06/05 20:22:01;;;;;;;5.88;2.40;;;18.00;74.10;;;14.51;89.20;95846.53;5068900;28;20509;-52
2022/06/05 20:24:31;;;;;;;5.28;2.60;;;18.00;74.00;;;14.43;89.32;95847.91;5069429;28;20029;-48
2022/06/05 20:27:20;;;;;;;7.18;2.60;;;18.00;74.00;;;14.36;89.38;95847.44;5068943;28;20037;-50
2022/06/05 20:29:54;;;;;;;5.68;3.28;;;17.90;74.00;;;14.24;90.22;95842.44;5069070;28;20546;-48
2022/06/05 20:32:25;;;;;;;6.20;3.45;;;17.80;73.90;;;14.12;90.37;95825.94;5068929;28;20032;-51
2022/06/05 20:34:52;;;;;;;5.68;3.33;;;17.80;74.10;;;14.13;90.56;95840.91;5047457;28;20037;-48
2022/06/05 20:37:32;;;;;;;6.45;2.90;;;17.70;74.10;;;14.11;90.76;95849.25;5042373;28;20075;-53
2022/06/05 20:40:08;;;;;;;5.32;3.25;;;17.70;74.50;;;14.09;90.67;95848.72;5049271;28;20535;-49
2022/06/05 20:45:11;;;;;;;6.32;4.18;;;17.70;74.50;;;14.05;90.74;95854.94;4743867;28;20456;-49
2022/06/05 20:48:06;;;;;;;5.15;3.35;;;17.60;74.60;;;14.02;90.90;95842.09;4914639;28;20053;-50
2022/06/05 20:51:11;;;;;;;5.60;3.40;;;17.60;74.70;;;13.99;90.70;95840.78;5009046;28;20041;-51
2022/06/05 20:53:54;;;;;;;8.40;3.95;;;17.60;74.70;;;13.93;90.95;95820.47;5008798;28;20389;-48
2022/06/05 20:56:48;;;;;;;8.60;3.63;;;17.60;74.50;;;13.95;91.45;95814.84;5008837;28;20038;-48
2022/06/05 20:59:19;;;;;;;6.20;3.50;;;17.60;74.70;;;13.94;92.32;95819.38;5009951;28;20069;-50
2022/06/05 21:01:59;;;;;;;4.30;3.33;;;17.60;74.90;;;13.99;92.30;95819.34;5008610;28;20595;-49
2022/06/05 21:07:27;;;;;;;10.80;6.38;;;17.60;75.20;;;14.05;92.13;95831.63;5026105;22;20064;-55
2022/06/05 21:10:00;;;;;;;4.45;3.50;;;17.60;75.30;;;14.05;92.35;95831.63;5026950;28;20038;-51
2022/06/05 21:18:23;;;;;;;6.07;3.40;;;17.70;75.60;;;14.15;92.01;95840.66;5047968;28;20415;-50
2022/06/05 21:20:51;;;;;;;7.30;3.47;;;17.70;75.60;;;14.11;91.89;95848.47;5031700;28;20087;-52
2022/06/05 21:23:21;;;;;;;3.90;3.50;;;17.70;75.40;;;14.14;91.94;95847.09;5047641;28;20029;-49
2022/06/05 21:25:50;;;;;;;5.82;4.05;;;17.70;75.50;;;14.11;91.86;95845.78;5047828;28;20059;-52
2022/06/05 21:28:42;;;;;;;5.43;3.85;;;17.70;75.60;;;14.09;92.11;95850.59;5064118;28;20025;-50
2022/06/05 21:31:27;;;;;;;8.45;3.70;;;17.60;75.60;;;14.08;91.99;95846.34;5047574;28;20032;-48
2022/06/05 21:33:54;;;;;;;6.25;4.05;;;17.60;75.60;;;14.03;91.40;95852.53;5048897;28;20025;-52
2022/06/05 21:36:24;;;;;;;8.48;4.38;;;17.60;75.30;;;13.96;91.17;95849.38;5047633;28;20025;-49
2022/06/05 21:39:11;;;;;;;7.40;4.75;;;17.60;75.30;;;13.90;91.16;95853.16;5041413;28;20030;-50
2022/06/05 21:42:10;;;;;;;7.18;4.30;;;17.50;76.00;;;13.85;91.95;95856.69;5017237;28;20025;-49
2022/06/05 21:44:39;;;;;;;6.63;4.00;;;17.50;75.30;;;13.81;91.74;95855.63;5008270;28;20080;-52
2022/06/05 21:47:22;;;;;;;9.10;4.40;;;17.40;75.10;;;13.83;92.22;95858.03;5052653;28;20430;-51
2022/06/05 21:49:53;;;;;;;6.20;4.10;;;17.40;76.30;;;13.76;91.78;95857.56;5047521;28;20384;-50
2022/06/05 21:52:28;;;;;;;10.35;4.35;;;17.40;75.30;;;13.69;91.45;95863.19;5048775;28;20029;-49
2022/06/05 21:55:04;;;;;;;9.40;4.13;;;17.40;75.30;;;13.61;91.68;95858.44;5042253;28;20040;-51
2022/06/05 21:57:45;;;;;;;9.13;4.78;;;17.30;75.20;;;13.56;92.09;95861.13;5033984;28;20517;-50
2022/06/05 22:00:45;;;;;;;10.55;4.80;;;17.20;76.10;;;13.56;92.70;95845.88;5034005;28;20095;-50
2022/06/05 22:03:34;;;;;;;7.55;4.43;;;17.20;75.60;;;13.54;92.27;95852.59;5033771;28;20083;-51
2022/06/05 22:06:05;;;;;;;6.78;4.80;;;17.10;75.40;;;13.50;92.32;95856.88;5034769;28;20041;-50
2022/06/05 22:08:36;;;;;;;7.40;4.88;;;17.10;75.50;;;13.45;92.05;95857.72;5017197;28;20041;-49
2022/06/05 22:11:07;;;;;;;9.18;5.00;;;17.10;75.60;;;13.40;92.04;95866.56;5017419;28;20423;-55
2022/06/05 22:13:36;;;;;;;5.70;4.93;;;17.00;75.60;;;13.37;92.60;95869.78;5033814;28;20036;-52
2022/06/05 22:16:04;;;;;;;10.63;5.43;;;17.00;75.70;;;13.36;92.69;95856.69;5033815;28;20041;-53
2022/06/05 22:18:35;;;;;;;10.63;6.03;;;17.00;75.70;;;13.39;93.63;95870.31;5033595;28;20500;-52
2022/06/05 22:21:03;;;;;;;9.35;5.78;;;17.00;76.10;;;13.37;93.27;95855.63;5034632;28;20083;-56
2022/06/05 22:23:32;;;;;;;11.13;5.53;;;17.00;76.00;;;13.36;93.23;95852.16;5034589;28;20025;-52
2022/06/05 22:25:57;;;;;;;10.02;5.93;;;17.00;76.10;;;13.37;93.66;95856.41;5034597;28;20033;-53
2022/06/05 22:28:23;;;;;;;10.65;5.72;;;17.00;76.10;;;13.34;93.14;95848.94;5034449;28;20052;-53
2022/06/05 22:30:52;;;;;;;9.88;5.97;;;17.00;76.10;;;13.33;93.15;95858.03;5033344;28;20476;-50
2022/06/05 22:33:21;;;;;;;9.88;6.32;;;17.00;76.10;;;13.36;93.34;95865.53;5016754;28;20025;-50
2022/06/05 22:35:52;;;;;;;12.15;7.10;;;17.00;76.20;;;13.39;93.88;95872.19;5049766;28;20053;-53
2022/06/05 22:38:21;;;;;;;10.15;6.00;;;17.00;76.30;;;13.40;93.82;95865.78;5032376;28;20033;-52
2022/06/05 22:40:49;;;;;;;14.80;6.50;;;17.00;76.40;;;13.41;94.09;95865.50;5014521;28;20497;-51
2022/06/05 22:43:18;;;;;;;9.77;6.35;;;17.10;76.50;;;13.43;93.68;95862.53;5013251;28;20112;-50
2022/06/05 22:45:46;;;;;;;11.50;6.25;;;17.10;76.50;;;13.43;93.51;95859.88;5014373;28;20041;-54
2022/06/05 22:48:24;;;;;;;11.15;5.80;;;17.00;76.40;;;13.39;94.11;95856.94;5014281;28;20891;-51
2022/06/05 22:50:56;;;;;;;10.48;6.10;;;17.10;76.70;;;13.43;93.76;95860.66;4993396;28;20397;-51
2022/06/05 22:53:25;;;;;;;7.32;5.00;;;17.00;76.50;;;13.41;93.81;95852.13;5034659;28;20036;-53
2022/06/05 22:55:54;;;;;;;13.93;5.93;;;17.00;76.40;;;13.39;93.45;95861.50;5034012;28;20021;-51
2022/06/05 22:58:23;;;;;;;8.23;5.30;;;17.00;76.40;;;13.33;93.01;95866.06;5033827;28;20036;-52
2022/06/05 23:00:50;;;;;;;9.80;5.00;;;17.00;76.30;;;13.27;93.11;95866.38;5033987;28;20036;-56
2022/06/05 23:03:18;;;;;;;13.30;6.00;;;16.90;76.20;;;13.24;93.45;95864.22;5033820;28;20025;-50
2022/06/05 23:05:47;;;;;;;62.60;7.43;;;16.90;76.30;;;13.23;93.54;95865.28;5033772;28;20115;-53
2022/06/05 23:08:14;;;;;;;11.25;5.63;;;16.90;76.40;;;13.18;93.54;95869.56;5032135;28;20073;-48
2022/06/05 23:10:41;;;;;;;7.03;5.30;;;16.80;76.20;;;13.12;93.83;95859.97;5016077;28;20065;-52
2022/06/05 23:13:12;;;;;;;10.07;5.25;;;16.80;76.30;;;13.09;93.39;95863.19;5032456;28;20037;-52
2022/06/05 23:15:39;;;;;;;8.05;5.15;;;16.70;76.30;;;13.03;93.20;95863.47;5016224;28;20182;-49
2022/06/05 23:18:06;;;;;;;11.80;5.72;;;16.70;76.20;;;12.98;93.41;95869.66;5032359;28;20108;-50
2022/06/05 23:20:36;;;;;;;9.73;5.57;;;16.60;76.20;;;12.94;94.05;95863.22;5032433;28;20506;-53
2022/06/05 23:23:05;;;;;;;7.55;5.13;;;16.60;76.40;;;12.94;93.87;95873.94;5032206;28;20048;-52
2022/06/05 23:25:41;;;;;;;10.13;5.10;;;16.50;76.40;;;12.88;93.05;95867.00;5032189;28;20030;-51
2022/06/05 23:28:08;;;;;;;8.25;4.70;;;16.50;76.40;;;12.78;92.79;95867.03;5032257;28;20104;-49
2022/06/05 23:30:35;;;;;;;8.70;5.50;;;16.50;76.30;;;12.73;92.66;95871.31;5032221;28;20034;-53
2022/06/05 23:33:07;;;;;;;12.85;5.20;;;16.40;76.20;;;12.67;92.93;95864.38;5033362;28;20041;-49
2022/06/05 23:35:33;;;;;;;12.60;5.80;;;16.40;76.30;;;12.65;93.50;95869.19;5033329;28;20036;-53
2022/06/05 23:38:20;;;;;;;11.77;5.18;;;16.40;76.30;;;12.65;93.98;95871.06;5033109;28;20104;-50
2022/06/05 23:40:45;;;;;;;8.45;4.90;;;16.30;76.60;;;12.65;94.09;95865.72;5009345;28;20037;-49
2022/06/05 23:43:11;;;;;;;14.88;5.50;;;16.30;76.50;;;12.65;94.00;95866.53;5013444;28;20033;-49
2022/06/05 23:45:39;;;;;;;16.98;6.00;;;16.30;76.60;;;12.64;93.99;95859.59;5013481;28;20038;-54
2022/06/05 23:48:08;;;;;;;9.57;5.80;;;16.30;76.70;;;12.65;94.47;95855.03;5012371;28;20105;-53
2022/06/05 23:50:33;;;;;;;10.05;6.13;;;16.30;76.80;;;12.68;94.94;95857.97;5013381;28;20038;-53
2022/06/05 23:52:59;;;;;;;10.68;5.70;;;16.30;76.80;;;12.71;94.99;95854.75;5013475;28;20041;-51
2022/06/05 23:55:25;;;;;;;8.75;5.40;;;16.30;76.90;;;12.72;94.86;95851.03;5013350;28;20108;-51
2022/06/05 23:57:56;;;;;;;10.38;5.35;;;16.30;76.90;;;12.74;95.02;95843.50;5011925;28;20498;-50
